Varna, Bulgaria
Current Conditions -  °F | °C
As of 3:00 PM on Sunday 21 Dec 2014 (Local Time) from LBWN Reporting Station
Scattered Clouds Scattered Clouds  
Wind Chill: 36°   Ceiling: Unl
Heat Index: 45°   Visibility: 6mi
Dew Point: 37°   Wind: 23mph
Humidity: 76%   Direction: 290°WNW
Pressure: 29.97"   Gusts: 35mph
Location:  43.21°N, 27.9°E
Report Text: LBWN 211200Z 29020G30KT 9999 SCT030 07/03 Q1015 NOSIG
Loading
Personal Weather Stations






























Interactive Weather Map New forecast layout! Learn more

10-Day Weather Forecast

Advertisements
Track Severe Weather on mobile